sensor_id;sensor_type;location;lat;lon;timestamp;pressure;altitude;pressure_sealevel;temperature;humidity
53689;BME280;39583;54.682;30.662;2022-11-27T07:27:31;100795.28;;;0.54;100.00
53689;BME280;39583;54.682;30.662;2022-11-27T07:29:57;100805.97;;;0.75;99.48
53689;BME280;39583;54.682;30.662;2022-11-27T07:32:23;100802.91;;;0.91;98.10
53689;BME280;39583;54.682;30.662;2022-11-27T07:34:49;100797.69;;;1.01;96.52
53689;BME280;39583;54.682;30.662;2022-11-27T07:37:15;100795.53;;;1.06;95.76
53689;BME280;39583;54.682;30.662;2022-11-27T07:39:42;100809.81;;;1.14;95.15
53689;BME280;39583;54.682;30.662;2022-11-27T07:42:08;100800.91;;;1.15;94.83
53689;BME280;39583;54.682;30.662;2022-11-27T07:44:34;100805.72;;;1.22;94.53
53689;BME280;39583;54.682;30.662;2022-11-27T07:47:00;100812.13;;;1.19;93.75
53689;BME280;39583;54.682;30.662;2022-11-27T07:49:26;100810.31;;;1.20;93.74
53689;BME280;39583;54.682;30.662;2022-11-27T07:51:52;100815.13;;;1.14;93.66
53689;BME280;39583;54.682;30.662;2022-11-27T07:54:18;100817.31;;;1.09;93.12
53689;BME280;39583;54.682;30.662;2022-11-27T07:56:44;100812.16;;;1.08;93.12
53689;BME280;39583;54.682;30.662;2022-11-27T07:59:10;100810.09;;;1.11;93.39
53689;BME280;39583;54.682;30.662;2022-11-27T08:01:36;100813.81;;;1.20;93.73
53689;BME280;39583;54.682;30.662;2022-11-27T08:04:02;100816.06;;;1.25;93.30
53689;BME280;39583;54.682;30.662;2022-11-27T08:06:28;100813.41;;;1.25;93.60
53689;BME280;39583;54.682;30.662;2022-11-27T08:08:54;100818.44;;;1.28;93.28
53689;BME280;39583;54.682;30.662;2022-11-27T08:11:27;100826.06;;;1.32;93.41
53689;BME280;39583;54.682;30.662;2022-11-27T08:13:57;100829.03;;;1.39;93.61
53689;BME280;39583;54.682;30.662;2022-11-27T08:16:23;100833.88;;;1.34;93.11
53689;BME280;39583;54.682;30.662;2022-11-27T08:18:49;100830.13;;;1.36;93.07
53689;BME280;39583;54.682;30.662;2022-11-27T08:21:15;100830.97;;;1.37;92.99
53689;BME280;39583;54.682;30.662;2022-11-27T08:23:42;100832.25;;;1.42;93.07
53689;BME280;39583;54.682;30.662;2022-11-27T08:26:09;100833.84;;;1.45;92.60
53689;BME280;39583;54.682;30.662;2022-11-27T08:28:36;100831.63;;;1.50;92.68
53689;BME280;39583;54.682;30.662;2022-11-27T08:31:04;100819.06;;;1.52;93.24
53689;BME280;39583;54.682;30.662;2022-11-27T08:33:31;100827.91;;;1.73;93.43
53689;BME280;39583;54.682;30.662;2022-11-27T08:35:58;100827.84;;;1.85;92.70
53689;BME280;39583;54.682;30.662;2022-11-27T08:38:24;100837.41;;;1.97;92.59
53689;BME280;39583;54.682;30.662;2022-11-27T08:40:58;100833.91;;;1.96;91.69
53689;BME280;39583;54.682;30.662;2022-11-27T08:43:25;100833.44;;;1.91;91.55
53689;BME280;39583;54.682;30.662;2022-11-27T08:45:52;100830.09;;;1.89;92.01
53689;BME280;39583;54.682;30.662;2022-11-27T08:48:19;100835.78;;;1.85;91.77
53689;BME280;39583;54.682;30.662;2022-11-27T08:50:46;100830.63;;;1.83;91.70
53689;BME280;39583;54.682;30.662;2022-11-27T08:53:14;100837.09;;;1.90;91.77
53689;BME280;39583;54.682;30.662;2022-11-27T08:55:40;100825.41;;;1.82;91.20
53689;BME280;39583;54.682;30.662;2022-11-27T08:58:07;100831.31;;;1.85;91.55
53689;BME280;39583;54.682;30.662;2022-11-27T09:00:33;100833.59;;;1.90;91.76
53689;BME280;39583;54.682;30.662;2022-11-27T09:03:00;100825.63;;;1.90;91.46
53689;BME280;39583;54.682;30.662;2022-11-27T09:05:27;100825.75;;;1.88;91.33
53689;BME280;39583;54.682;30.662;2022-11-27T09:07:54;100837.41;;;1.97;91.84
53689;BME280;39583;54.682;30.662;2022-11-27T09:10:21;100816.03;;;1.98;91.66
53689;BME280;39583;54.682;30.662;2022-11-27T09:12:48;100832.06;;;2.18;91.82
53689;BME280;39583;54.682;30.662;2022-11-27T09:15:15;100831.28;;;2.27;91.91
53689;BME280;39583;54.682;30.662;2022-11-27T09:17:41;100833.66;;;2.30;91.31
53689;BME280;39583;54.682;30.662;2022-11-27T09:20:08;100830.00;;;2.31;91.06
53689;BME280;39583;54.682;30.662;2022-11-27T09:22:35;100835.66;;;2.38;90.74
53689;BME280;39583;54.682;30.662;2022-11-27T09:25:01;100833.28;;;2.44;90.77
53689;BME280;39583;54.682;30.662;2022-11-27T09:27:28;100833.19;;;2.55;91.07
53689;BME280;39583;54.682;30.662;2022-11-27T09:29:54;100831.00;;;2.70;90.87
53689;BME280;39583;54.682;30.662;2022-11-27T09:32:21;100833.94;;;2.67;89.81
53689;BME280;39583;54.682;30.662;2022-11-27T09:34:49;100832.78;;;2.60;89.55
53689;BME280;39583;54.682;30.662;2022-11-27T09:37:15;100830.53;;;2.55;89.67
53689;BME280;39583;54.682;30.662;2022-11-27T09:39:41;100834.59;;;2.59;90.13
53689;BME280;39583;54.682;30.662;2022-11-27T09:42:14;100827.59;;;2.58;89.62
53689;BME280;39583;54.682;30.662;2022-11-27T09:44:48;100817.63;;;2.41;89.07
53689;BME280;39583;54.682;30.662;2022-11-27T09:47:38;100839.19;;;2.48;89.17
53689;BME280;39583;54.682;30.662;2022-11-27T09:50:18;100833.34;;;2.54;89.82
53689;BME280;39583;54.682;30.662;2022-11-27T09:53:34;100833.88;;;2.48;89.06
53689;BME280;39583;54.682;30.662;2022-11-27T09:55:43;100836.16;;;2.31;88.57
53689;BME280;39583;54.682;30.662;2022-11-27T10:00:47;100833.56;;;2.11;88.98
53689;BME280;39583;54.682;30.662;2022-11-27T10:03:14;100825.19;;;2.15;89.37
53689;BME280;39583;54.682;30.662;2022-11-27T10:05:56;100835.47;;;2.29;89.95
53689;BME280;39583;54.682;30.662;2022-11-27T10:08:46;100829.63;;;2.35;89.78
53689;BME280;39583;54.682;30.662;2022-11-27T10:21:49;100814.53;;;2.36;89.39
53689;BME280;39583;54.682;30.662;2022-11-27T10:27:02;100822.72;;;2.23;88.69
53689;BME280;39583;54.682;30.662;2022-11-27T10:32:14;100824.50;;;2.13;88.91
53689;BME280;39583;54.682;30.662;2022-11-27T10:34:46;100828.25;;;2.11;89.04
53689;BME280;39583;54.682;30.662;2022-11-27T10:37:20;100821.06;;;2.01;88.84
53689;BME280;39583;54.682;30.662;2022-11-27T10:42:43;100810.13;;;1.95;89.83
53689;BME280;39583;54.682;30.662;2022-11-27T10:47:46;100816.06;;;2.08;89.87
53689;BME280;39583;54.682;30.662;2022-11-27T10:50:17;100822.72;;;2.23;90.50
53689;BME280;39583;54.682;30.662;2022-11-27T10:52:59;100818.28;;;2.33;90.40
53689;BME280;39583;54.682;30.662;2022-11-27T10:58:43;100827.69;;;2.47;89.60
53689;BME280;39583;54.682;30.662;2022-11-27T11:01:17;100821.13;;;2.42;89.08
53689;BME280;39583;54.682;30.662;2022-11-27T11:03:44;100802.75;;;2.29;88.96
53689;BME280;39583;54.682;30.662;2022-11-27T11:06:24;100821.25;;;2.40;88.94
53689;BME280;39583;54.682;30.662;2022-11-27T11:09:14;100805.41;;;2.29;88.47
53689;BME280;39583;54.682;30.662;2022-11-27T11:11:40;100812.84;;;2.35;88.33
53689;BME280;39583;54.682;30.662;2022-11-27T11:14:17;100813.50;;;2.27;88.15
53689;BME280;39583;54.682;30.662;2022-11-27T11:16:45;100815.59;;;2.24;88.04
53689;BME280;39583;54.682;30.662;2022-11-27T11:19:31;100815.97;;;2.19;88.32
53689;BME280;39583;54.682;30.662;2022-11-27T11:21:58;100822.25;;;2.18;88.57
53689;BME280;39583;54.682;30.662;2022-11-27T11:24:34;100813.03;;;2.13;88.28
53689;BME280;39583;54.682;30.662;2022-11-27T11:27:27;100812.47;;;2.09;88.31
53689;BME280;39583;54.682;30.662;2022-11-27T11:29:57;100810.75;;;2.08;88.51
53689;BME280;39583;54.682;30.662;2022-11-27T11:32:28;100814.22;;;1.99;88.53
53689;BME280;39583;54.682;30.662;2022-11-27T11:35:02;100810.38;;;1.92;88.17
53689;BME280;39583;54.682;30.662;2022-11-27T11:37:34;100809.25;;;1.85;88.12
53689;BME280;39583;54.682;30.662;2022-11-27T11:40:07;100809.47;;;1.82;88.61
53689;BME280;39583;54.682;30.662;2022-11-27T11:42:34;100815.19;;;1.77;88.40
53689;BME280;39583;54.682;30.662;2022-11-27T11:47:44;100761.56;;;1.41;88.38
53689;BME280;39583;54.682;30.662;2022-11-27T11:50:23;100808.53;;;1.62;88.37
53689;BME280;39583;54.682;30.662;2022-11-27T11:53:11;100810.75;;;1.57;88.19
53689;BME280;39583;54.682;30.662;2022-11-27T11:55:59;100812.91;;;1.52;88.70
53689;BME280;39583;54.682;30.662;2022-11-27T11:58:58;100819.59;;;1.46;88.47
53689;BME280;39583;54.682;30.662;2022-11-27T12:09:58;100796.78;;;1.23;88.45
53689;BME280;39583;54.682;30.662;2022-11-27T12:12:51;100811.34;;;1.28;89.01
53689;BME280;39583;54.682;30.662;2022-11-27T12:18:22;100805.66;;;1.33;89.07
53689;BME280;39583;54.682;30.662;2022-11-27T12:21:15;100811.94;;;1.32;89.24
53689;BME280;39583;54.682;30.662;2022-11-27T12:23:52;100811.22;;;1.30;88.86
53689;BME280;39583;54.682;30.662;2022-11-27T12:32:03;100815.00;;;1.16;88.63
53689;BME280;39583;54.682;30.662;2022-11-27T12:43:21;100808.19;;;1.02;89.46
53689;BME280;39583;54.682;30.662;2022-11-27T12:45:58;100808.91;;;1.04;89.21
53689;BME280;39583;54.682;30.662;2022-11-27T12:48:35;100819.88;;;1.00;88.92
53689;BME280;39583;54.682;30.662;2022-11-27T12:54:20;100812.94;;;0.87;89.06
53689;BME280;39583;54.682;30.662;2022-11-27T12:56:57;100811.25;;;0.86;88.84
53689;BME280;39583;54.682;30.662;2022-11-27T12:59:30;100821.00;;;0.86;89.04
53689;BME280;39583;54.682;30.662;2022-11-27T13:04:59;100812.78;;;0.89;89.03
53689;BME280;39583;54.682;30.662;2022-11-27T13:07:45;100818.34;;;0.86;89.23
53689;BME280;39583;54.682;30.662;2022-11-27T13:10:36;100815.69;;;0.86;89.08
53689;BME280;39583;54.682;30.662;2022-11-27T13:13:10;100810.78;;;0.81;89.24
53689;BME280;39583;54.682;30.662;2022-11-27T13:15:55;100818.50;;;0.73;88.91
53689;BME280;39583;54.682;30.662;2022-11-27T13:18:31;100801.19;;;0.58;88.88
53689;BME280;39583;54.682;30.662;2022-11-27T13:21:02;100813.22;;;0.62;88.98
53689;BME280;39583;54.682;30.662;2022-11-27T13:23:33;100815.88;;;0.62;89.12
53689;BME280;39583;54.682;30.662;2022-11-27T13:26:10;100808.03;;;0.61;89.44
53689;BME280;39583;54.682;30.662;2022-11-27T13:28:45;100804.69;;;0.58;89.39
53689;BME280;39583;54.682;30.662;2022-11-27T13:31:27;100810.22;;;0.55;89.24
53689;BME280;39583;54.682;30.662;2022-11-27T13:34:01;100799.00;;;0.52;89.19
53689;BME280;39583;54.682;30.662;2022-11-27T13:36:36;100801.06;;;0.48;89.48
53689;BME280;39583;54.682;30.662;2022-11-27T13:39:04;100800.59;;;0.43;89.38
53689;BME280;39583;54.682;30.662;2022-11-27T13:41:38;100787.25;;;0.34;89.37
53689;BME280;39583;54.682;30.662;2022-11-27T13:44:24;100803.59;;;0.39;89.57
53689;BME280;39583;54.682;30.662;2022-11-27T13:46:54;100786.66;;;0.30;89.48
53689;BME280;39583;54.682;30.662;2022-11-27T13:49:31;100800.94;;;0.39;89.82
53689;BME280;39583;54.682;30.662;2022-11-27T13:52:15;100801.91;;;0.38;89.52
53689;BME280;39583;54.682;30.662;2022-11-27T13:55:12;100807.22;;;0.38;89.15
53689;BME280;39583;54.682;30.662;2022-11-27T13:57:52;100804.81;;;0.35;89.44
53689;BME280;39583;54.682;30.662;2022-11-27T14:00:33;100805.66;;;0.35;89.86
53689;BME280;39583;54.682;30.662;2022-11-27T14:03:00;100806.38;;;0.37;89.51
53689;BME280;39583;54.682;30.662;2022-11-27T14:05:39;100812.63;;;0.36;89.51
53689;BME280;39583;54.682;30.662;2022-11-27T14:08:47;100812.19;;;0.31;89.60
53689;BME280;39583;54.682;30.662;2022-11-27T14:11:15;100815.66;;;0.32;89.34
53689;BME280;39583;54.682;30.662;2022-11-27T14:13:44;100799.91;;;0.30;89.40
53689;BME280;39583;54.682;30.662;2022-11-27T14:16:37;100808.81;;;0.29;89.48
53689;BME280;39583;54.682;30.662;2022-11-27T14:19:22;100796.66;;;0.26;89.62
53689;BME280;39583;54.682;30.662;2022-11-27T14:21:49;100800.03;;;0.28;89.83
53689;BME280;39583;54.682;30.662;2022-11-27T14:24:35;100807.84;;;0.30;89.41
53689;BME280;39583;54.682;30.662;2022-11-27T14:27:25;100808.19;;;0.25;89.30
53689;BME280;39583;54.682;30.662;2022-11-27T14:29:53;100798.69;;;0.23;89.38
53689;BME280;39583;54.682;30.662;2022-11-27T14:32:20;100778.69;;;0.08;89.80
53689;BME280;39583;54.682;30.662;2022-11-27T14:34:46;100801.44;;;0.21;89.34
53689;BME280;39583;54.682;30.662;2022-11-27T14:37:27;100811.22;;;0.21;89.94
53689;BME280;39583;54.682;30.662;2022-11-27T14:39:54;100803.25;;;0.21;89.60
53689;BME280;39583;54.682;30.662;2022-11-27T14:42:26;100809.41;;;0.21;89.31
53689;BME280;39583;54.682;30.662;2022-11-27T14:45:20;100812.16;;;0.20;89.58
53689;BME280;39583;54.682;30.662;2022-11-27T14:47:52;100813.84;;;0.21;89.31
53689;BME280;39583;54.682;30.662;2022-11-27T14:50:20;100766.06;;;-0.11;89.62
53689;BME280;39583;54.682;30.662;2022-11-27T14:52:55;100818.19;;;0.22;89.18
53689;BME280;39583;54.682;30.662;2022-11-27T14:55:22;100823.84;;;0.17;89.42
53689;BME280;39583;54.682;30.662;2022-11-27T14:57:49;100823.84;;;0.17;89.43
53689;BME280;39583;54.682;30.662;2022-11-27T15:00:25;100826.63;;;0.16;89.14
53689;BME280;39583;54.682;30.662;2022-11-27T15:03:09;100817.72;;;0.17;89.47
53689;BME280;39583;54.682;30.662;2022-11-27T15:05:36;100816.25;;;0.13;89.26
53689;BME280;39583;54.682;30.662;2022-11-27T15:08:08;100819.88;;;0.12;89.08
53689;BME280;39583;54.682;30.662;2022-11-27T15:10:37;100825.28;;;0.10;89.17
53689;BME280;39583;54.682;30.662;2022-11-27T15:13:05;100815.78;;;0.08;88.96
53689;BME280;39583;54.682;30.662;2022-11-27T15:15:42;100811.19;;;0.10;89.17
53689;BME280;39583;54.682;30.662;2022-11-27T15:18:19;100820.09;;;0.09;88.87
53689;BME280;39583;54.682;30.662;2022-11-27T15:20:47;100822.75;;;0.09;88.80
53689;BME280;39583;54.682;30.662;2022-11-27T15:23:46;100825.66;;;0.06;88.87
53689;BME280;39583;54.682;30.662;2022-11-27T15:26:29;100819.03;;;0.00;88.77
53689;BME280;39583;54.682;30.662;2022-11-27T15:28:56;100824.34;;;0.00;89.11
53689;BME280;39583;54.682;30.662;2022-11-27T15:31:27;100817.56;;;-0.04;89.05
53689;BME280;39583;54.682;30.662;2022-11-27T15:36:44;100822.63;;;-0.01;88.86
53689;BME280;39583;54.682;30.662;2022-11-27T15:42:02;100807.94;;;-0.05;88.69
53689;BME280;39583;54.682;30.662;2022-11-27T15:44:30;100821.69;;;0.00;89.00
53689;BME280;39583;54.682;30.662;2022-11-27T15:46:59;100825.19;;;0.01;88.56
53689;BME280;39583;54.682;30.662;2022-11-27T15:49:26;100828.03;;;-0.03;88.49
53689;BME280;39583;54.682;30.662;2022-11-27T15:51:54;100818.66;;;-0.07;88.74
53689;BME280;39583;54.682;30.662;2022-11-27T15:54:22;100819.63;;;-0.08;88.73
53689;BME280;39583;54.682;30.662;2022-11-27T15:56:48;100811.41;;;-0.16;88.61
53689;BME280;39583;54.682;30.662;2022-11-27T15:59:15;100823.34;;;-0.10;88.40
53689;BME280;39583;54.682;30.662;2022-11-27T16:01:43;100823.47;;;-0.12;88.57
53689;BME280;39583;54.682;30.662;2022-11-27T16:04:10;100820.06;;;-0.14;88.83
53689;BME280;39583;54.682;30.662;2022-11-27T16:06:37;100818.38;;;-0.15;88.80
53689;BME280;39583;54.682;30.662;2022-11-27T16:09:04;100814.91;;;-0.15;88.56
53689;BME280;39583;54.682;30.662;2022-11-27T16:11:31;100816.59;;;-0.14;88.73
53689;BME280;39583;54.682;30.662;2022-11-27T16:13:58;100817.34;;;-0.12;88.56
53689;BME280;39583;54.682;30.662;2022-11-27T16:16:25;100818.28;;;-0.13;88.72
53689;BME280;39583;54.682;30.662;2022-11-27T16:18:56;100823.47;;;-0.12;88.69
53689;BME280;39583;54.682;30.662;2022-11-27T16:21:25;100824.44;;;-0.13;88.46
53689;BME280;39583;54.682;30.662;2022-11-27T16:23:57;100825.50;;;-0.15;88.30
53689;BME280;39583;54.682;30.662;2022-11-27T16:26:25;100827.28;;;-0.16;88.77
53689;BME280;39583;54.682;30.662;2022-11-27T16:28:52;100799.47;;;-0.33;88.72
53689;BME280;39583;54.682;30.662;2022-11-27T16:31:19;100823.09;;;-0.18;88.28
53689;BME280;39583;54.682;30.662;2022-11-27T16:33:47;100829.34;;;-0.19;88.34
53689;BME280;39583;54.682;30.662;2022-11-27T16:36:16;100825.84;;;-0.20;88.42
53689;BME280;39583;54.682;30.662;2022-11-27T16:38:45;100832.13;;;-0.21;88.77
53689;BME280;39583;54.682;30.662;2022-11-27T16:41:14;100830.56;;;-0.23;88.72
53689;BME280;39583;54.682;30.662;2022-11-27T16:43:44;100831.50;;;-0.24;88.36
53689;BME280;39583;54.682;30.662;2022-11-27T16:46:19;100820.16;;;-0.26;88.48
53689;BME280;39583;54.682;30.662;2022-11-27T16:48:48;100818.72;;;-0.31;88.55
53689;BME280;39583;54.682;30.662;2022-11-27T16:51:21;100821.25;;;-0.29;88.14
53689;BME280;39583;54.682;30.662;2022-11-27T16:53:53;100818.72;;;-0.31;88.34
53689;BME280;39583;54.682;30.662;2022-11-27T16:56:25;100820.41;;;-0.30;88.53
53689;BME280;39583;54.682;30.662;2022-11-27T16:58:53;100823.41;;;-0.34;88.15
53689;BME280;39583;54.682;30.662;2022-11-27T17:01:27;100823.41;;;-0.34;88.40
53689;BME280;39583;54.682;30.662;2022-11-27T17:03:54;100825.94;;;-0.33;88.51
53689;BME280;39583;54.682;30.662;2022-11-27T17:06:25;100834.00;;;-0.34;88.36
53689;BME280;39583;54.682;30.662;2022-11-27T17:08:57;100828.09;;;-0.38;88.63
53689;BME280;39583;54.682;30.662;2022-11-27T17:11:25;100817.53;;;-0.38;88.44
53689;BME280;39583;54.682;30.662;2022-11-27T17:13:56;100828.31;;;-0.41;88.13
53689;BME280;39583;54.682;30.662;2022-11-27T17:16:23;100823.16;;;-0.42;88.54
53689;BME280;39583;54.682;30.662;2022-11-27T17:18:50;100823.16;;;-0.42;88.36
53689;BME280;39583;54.682;30.662;2022-11-27T17:21:29;100801.22;;;-0.55;88.29
53689;BME280;39583;54.682;30.662;2022-11-27T17:24:05;100818.81;;;-0.43;88.37
53689;BME280;39583;54.682;30.662;2022-11-27T17:26:37;100831.19;;;-0.44;88.43
53689;BME280;39583;54.682;30.662;2022-11-27T17:29:10;100826.16;;;-0.47;88.10
53689;BME280;39583;54.682;30.662;2022-11-27T17:31:37;100828.91;;;-0.48;88.42
53689;BME280;39583;54.682;30.662;2022-11-27T17:34:05;100826.16;;;-0.47;88.33
53689;BME280;39583;54.682;30.662;2022-11-27T17:36:33;100826.03;;;-0.45;88.29
53689;BME280;39583;54.682;30.662;2022-11-27T17:39:04;100822.66;;;-0.47;88.31
53689;BME280;39583;54.682;30.662;2022-11-27T17:41:32;100827.34;;;-0.51;88.38
53689;BME280;39583;54.682;30.662;2022-11-27T17:44:05;100800.81;;;-0.73;88.00
53689;BME280;39583;54.682;30.662;2022-11-27T17:46:32;100831.16;;;-0.55;87.90
53689;BME280;39583;54.682;30.662;2022-11-27T17:49:01;100824.44;;;-0.59;88.31
53689;BME280;39583;54.682;30.662;2022-11-27T17:51:30;100822.84;;;-0.62;88.20
53689;BME280;39583;54.682;30.662;2022-11-27T17:54:01;100820.09;;;-0.60;88.14
53689;BME280;39583;54.682;30.662;2022-11-27T17:56:31;100813.34;;;-0.64;88.00
53689;BME280;39583;54.682;30.662;2022-11-27T17:58:58;100804.31;;;-0.73;87.73
53689;BME280;39583;54.682;30.662;2022-11-27T18:01:26;100814.66;;;-0.70;88.21
53689;BME280;39583;54.682;30.662;2022-11-27T18:03:56;100806.22;;;-0.75;88.01
53689;BME280;39583;54.682;30.662;2022-11-27T18:06:25;100813.69;;;-0.69;88.25
53689;BME280;39583;54.682;30.662;2022-11-27T18:08:52;100817.06;;;-0.67;88.26
53689;BME280;39583;54.682;30.662;2022-11-27T18:11:24;100818.13;;;-0.69;87.79
53689;BME280;39583;54.682;30.662;2022-11-27T18:13:51;100810.78;;;-0.77;88.02
53689;BME280;39583;54.682;30.662;2022-11-27T18:16:23;100825.47;;;-0.73;87.96
53689;BME280;39583;54.682;30.662;2022-11-27T18:18:55;100810.44;;;-0.72;88.28
53689;BME280;39583;54.682;30.662;2022-11-27T18:21:23;100823.16;;;-0.77;88.17
53689;BME280;39583;54.682;30.662;2022-11-27T18:23:52;100812.06;;;-0.82;87.92
53689;BME280;39583;54.682;30.662;2022-11-27T18:26:19;100815.66;;;-0.83;88.20
53689;BME280;39583;54.682;30.662;2022-11-27T18:28:47;100810.50;;;-0.85;88.32
53689;BME280;39583;54.682;30.662;2022-11-27T18:31:17;100811.34;;;-0.84;87.95
53689;BME280;39583;54.682;30.662;2022-11-27T18:33:47;100814.72;;;-0.82;88.49
53689;BME280;39583;54.682;30.662;2022-11-27T18:36:14;100819.03;;;-0.81;88.00
53689;BME280;39583;54.682;30.662;2022-11-27T18:38:44;100813.03;;;-0.83;87.99
53689;BME280;39583;54.682;30.662;2022-11-27T18:41:14;100810.63;;;-0.86;87.91
53689;BME280;39583;54.682;30.662;2022-11-27T18:43:42;100784.47;;;-1.02;88.01
53689;BME280;39583;54.682;30.662;2022-11-27T18:46:12;100808.09;;;-0.88;88.26
53689;BME280;39583;54.682;30.662;2022-11-27T18:48:46;100806.28;;;-0.87;88.15
